sensor_id;sensor_type;location;lat;lon;timestamp;P1;durP1;ratioP1;P2;durP2;ratioP2
59054;SDS011;44845;51.444;7.460;2023-03-19T00:01:57;5.03;;;2.20;;
59054;SDS011;44845;51.444;7.460;2023-03-19T00:04:24;4.82;;;2.28;;
59054;SDS011;44845;51.444;7.460;2023-03-19T00:06:50;7.65;;;2.60;;
59054;SDS011;44845;51.444;7.460;2023-03-19T00:09:16;6.15;;;2.58;;
59054;SDS011;44845;51.444;7.460;2023-03-19T00:11:42;3.78;;;2.00;;
59054;SDS011;44845;51.444;7.460;2023-03-19T00:14:07;7.82;;;1.90;;
59054;SDS011;44845;51.444;7.460;2023-03-19T00:16:33;5.07;;;1.85;;
59054;SDS011;44845;51.444;7.460;2023-03-19T00:18:58;5.82;;;1.42;;
59054;SDS011;44845;51.444;7.460;2023-03-19T00:21:23;3.75;;;1.38;;
59054;SDS011;44845;51.444;7.460;2023-03-19T00:23:49;4.38;;;1.45;;
59054;SDS011;44845;51.444;7.460;2023-03-19T00:26:15;6.55;;;1.42;;
59054;SDS011;44845;51.444;7.460;2023-03-19T00:28:41;5.32;;;1.40;;
59054;SDS011;44845;51.444;7.460;2023-03-19T00:31:10;4.25;;;1.60;;
59054;SDS011;44845;51.444;7.460;2023-03-19T00:33:38;2.65;;;1.42;;
59054;SDS011;44845;51.444;7.460;2023-03-19T00:36:04;4.82;;;1.55;;
59054;SDS011;44845;51.444;7.460;2023-03-19T00:38:31;5.57;;;1.42;;
59054;SDS011;44845;51.444;7.460;2023-03-19T00:40:57;5.53;;;1.40;;
59054;SDS011;44845;51.444;7.460;2023-03-19T00:43:22;3.08;;;1.38;;
59054;SDS011;44845;51.444;7.460;2023-03-19T00:45:48;5.25;;;1.83;;
59054;SDS011;44845;51.444;7.460;2023-03-19T00:48:14;6.22;;;1.70;;
59054;SDS011;44845;51.444;7.460;2023-03-19T00:50:40;5.97;;;1.55;;
59054;SDS011;44845;51.444;7.460;2023-03-19T00:53:06;4.07;;;1.50;;
59054;SDS011;44845;51.444;7.460;2023-03-19T00:55:31;4.78;;;1.67;;
59054;SDS011;44845;51.444;7.460;2023-03-19T00:57:57;3.83;;;1.80;;
59054;SDS011;44845;51.444;7.460;2023-03-19T01:00:22;6.22;;;1.80;;
59054;SDS011;44845;51.444;7.460;2023-03-19T01:02:48;4.93;;;1.60;;
59054;SDS011;44845;51.444;7.460;2023-03-19T01:05:13;7.95;;;1.83;;
59054;SDS011;44845;51.444;7.460;2023-03-19T01:07:39;3.58;;;1.77;;
59054;SDS011;44845;51.444;7.460;2023-03-19T01:10:04;5.38;;;2.03;;
59054;SDS011;44845;51.444;7.460;2023-03-19T01:12:31;3.65;;;1.70;;
59054;SDS011;44845;51.444;7.460;2023-03-19T01:14:56;4.10;;;1.92;;
59054;SDS011;44845;51.444;7.460;2023-03-19T01:17:22;3.40;;;1.33;;
59054;SDS011;44845;51.444;7.460;2023-03-19T01:19:49;4.30;;;1.58;;
59054;SDS011;44845;51.444;7.460;2023-03-19T01:22:15;7.38;;;1.98;;
59054;SDS011;44845;51.444;7.460;2023-03-19T01:24:41;4.90;;;1.58;;
59054;SDS011;44845;51.444;7.460;2023-03-19T01:27:07;4.90;;;1.70;;
59054;SDS011;44845;51.444;7.460;2023-03-19T01:29:32;6.10;;;3.00;;
59054;SDS011;44845;51.444;7.460;2023-03-19T01:31:58;11.75;;;4.38;;
59054;SDS011;44845;51.444;7.460;2023-03-19T01:34:23;8.88;;;2.92;;
59054;SDS011;44845;51.444;7.460;2023-03-19T01:36:49;5.53;;;2.20;;
59054;SDS011;44845;51.444;7.460;2023-03-19T01:39:14;4.22;;;1.67;;
59054;SDS011;44845;51.444;7.460;2023-03-19T01:41:39;3.20;;;1.70;;
59054;SDS011;44845;51.444;7.460;2023-03-19T01:46:53;3.20;;;1.50;;
59054;SDS011;44845;51.444;7.460;2023-03-19T01:49:21;3.83;;;1.70;;
59054;SDS011;44845;51.444;7.460;2023-03-19T01:51:48;3.28;;;1.48;;
59054;SDS011;44845;51.444;7.460;2023-03-19T01:54:16;4.18;;;1.30;;
59054;SDS011;44845;51.444;7.460;2023-03-19T01:56:46;6.05;;;1.38;;
59054;SDS011;44845;51.444;7.460;2023-03-19T01:59:26;3.17;;;1.40;;
59054;SDS011;44845;51.444;7.460;2023-03-19T02:01:56;5.50;;;1.95;;
59054;SDS011;44845;51.444;7.460;2023-03-19T02:04:25;3.55;;;1.60;;
59054;SDS011;44845;51.444;7.460;2023-03-19T02:06:53;2.90;;;1.60;;
59054;SDS011;44845;51.444;7.460;2023-03-19T02:09:20;6.35;;;1.60;;
59054;SDS011;44845;51.444;7.460;2023-03-19T02:11:46;4.93;;;1.75;;
59054;SDS011;44845;51.444;7.460;2023-03-19T02:14:11;5.95;;;1.70;;
59054;SDS011;44845;51.444;7.460;2023-03-19T02:16:37;3.83;;;1.48;;
59054;SDS011;44845;51.444;7.460;2023-03-19T02:19:03;4.72;;;1.60;;
59054;SDS011;44845;51.444;7.460;2023-03-19T02:21:33;5.57;;;1.55;;
59054;SDS011;44845;51.444;7.460;2023-03-19T02:26:27;3.85;;;1.52;;
59054;SDS011;44845;51.444;7.460;2023-03-19T02:28:54;4.53;;;1.40;;
59054;SDS011;44845;51.444;7.460;2023-03-19T02:31:20;4.97;;;1.73;;
59054;SDS011;44845;51.444;7.460;2023-03-19T02:34:03;4.72;;;1.63;;
59054;SDS011;44845;51.444;7.460;2023-03-19T02:36:32;4.72;;;1.52;;
59054;SDS011;44845;51.444;7.460;2023-03-19T02:39:02;5.50;;;1.70;;
59054;SDS011;44845;51.444;7.460;2023-03-19T02:41:29;10.30;;;1.60;;
59054;SDS011;44845;51.444;7.460;2023-03-19T02:43:56;3.28;;;1.50;;
59054;SDS011;44845;51.444;7.460;2023-03-19T02:46:23;3.65;;;1.58;;
59054;SDS011;44845;51.444;7.460;2023-03-19T02:48:49;4.32;;;1.52;;
59054;SDS011;44845;51.444;7.460;2023-03-19T02:51:14;6.20;;;2.00;;
59054;SDS011;44845;51.444;7.460;2023-03-19T02:53:40;4.55;;;2.00;;
59054;SDS011;44845;51.444;7.460;2023-03-19T02:56:05;5.25;;;1.70;;
59054;SDS011;44845;51.444;7.460;2023-03-19T02:58:31;8.05;;;1.90;;
59054;SDS011;44845;51.444;7.460;2023-03-19T03:00:56;4.88;;;1.70;;
59054;SDS011;44845;51.444;7.460;2023-03-19T03:03:21;5.15;;;1.65;;
59054;SDS011;44845;51.444;7.460;2023-03-19T03:05:47;2.65;;;1.27;;
59054;SDS011;44845;51.444;7.460;2023-03-19T03:08:12;2.65;;;1.45;;
59054;SDS011;44845;51.444;7.460;2023-03-19T03:10:37;3.15;;;1.30;;
59054;SDS011;44845;51.444;7.460;2023-03-19T03:13:03;5.82;;;1.23;;
59054;SDS011;44845;51.444;7.460;2023-03-19T03:15:29;5.57;;;1.48;;
59054;SDS011;44845;51.444;7.460;2023-03-19T03:17:55;4.75;;;1.60;;
59054;SDS011;44845;51.444;7.460;2023-03-19T03:20:20;2.30;;;1.58;;
59054;SDS011;44845;51.444;7.460;2023-03-19T03:22:46;5.63;;;1.40;;
59054;SDS011;44845;51.444;7.460;2023-03-19T03:25:12;4.28;;;1.67;;
59054;SDS011;44845;51.444;7.460;2023-03-19T03:27:38;5.18;;;1.60;;
59054;SDS011;44845;51.444;7.460;2023-03-19T03:30:04;4.50;;;1.58;;
59054;SDS011;44845;51.444;7.460;2023-03-19T03:32:35;4.38;;;1.70;;
59054;SDS011;44845;51.444;7.460;2023-03-19T03:35:01;5.47;;;1.40;;
59054;SDS011;44845;51.444;7.460;2023-03-19T03:37:27;3.00;;;1.58;;
59054;SDS011;44845;51.444;7.460;2023-03-19T03:39:53;5.47;;;1.50;;
59054;SDS011;44845;51.444;7.460;2023-03-19T03:42:18;4.00;;;1.67;;
59054;SDS011;44845;51.444;7.460;2023-03-19T03:44:44;4.97;;;1.45;;
59054;SDS011;44845;51.444;7.460;2023-03-19T03:47:09;3.53;;;1.40;;
59054;SDS011;44845;51.444;7.460;2023-03-19T03:49:35;3.00;;;1.58;;
59054;SDS011;44845;51.444;7.460;2023-03-19T03:52:00;3.42;;;1.40;;
59054;SDS011;44845;51.444;7.460;2023-03-19T03:54:26;4.55;;;1.63;;
59054;SDS011;44845;51.444;7.460;2023-03-19T03:56:51;3.53;;;1.48;;
59054;SDS011;44845;51.444;7.460;2023-03-19T03:59:16;6.97;;;1.80;;
59054;SDS011;44845;51.444;7.460;2023-03-19T04:01:42;2.78;;;1.73;;
59054;SDS011;44845;51.444;7.460;2023-03-19T04:04:07;2.45;;;1.50;;
59054;SDS011;44845;51.444;7.460;2023-03-19T04:06:32;2.05;;;1.50;;
59054;SDS011;44845;51.444;7.460;2023-03-19T04:08:58;5.00;;;1.77;;
59054;SDS011;44845;51.444;7.460;2023-03-19T04:11:25;4.25;;;1.65;;
59054;SDS011;44845;51.444;7.460;2023-03-19T04:13:50;5.18;;;1.77;;
59054;SDS011;44845;51.444;7.460;2023-03-19T04:16:16;3.25;;;1.48;;
59054;SDS011;44845;51.444;7.460;2023-03-19T04:18:41;4.07;;;1.55;;
59054;SDS011;44845;51.444;7.460;2023-03-19T04:21:06;5.05;;;1.60;;
59054;SDS011;44845;51.444;7.460;2023-03-19T04:23:33;4.28;;;1.30;;
59054;SDS011;44845;51.444;7.460;2023-03-19T04:25:59;4.78;;;1.55;;
59054;SDS011;44845;51.444;7.460;2023-03-19T04:28:28;2.90;;;1.65;;
59054;SDS011;44845;51.444;7.460;2023-03-19T04:31:00;2.67;;;1.55;;
59054;SDS011;44845;51.444;7.460;2023-03-19T04:33:26;3.78;;;1.20;;
59054;SDS011;44845;51.444;7.460;2023-03-19T04:35:52;3.63;;;1.90;;
59054;SDS011;44845;51.444;7.460;2023-03-19T04:38:19;4.47;;;1.67;;
59054;SDS011;44845;51.444;7.460;2023-03-19T04:40:44;3.72;;;1.80;;
59054;SDS011;44845;51.444;7.460;2023-03-19T04:43:11;2.58;;;1.42;;
59054;SDS011;44845;51.444;7.460;2023-03-19T04:45:37;4.10;;;1.88;;
59054;SDS011;44845;51.444;7.460;2023-03-19T04:48:02;4.50;;;1.67;;
59054;SDS011;44845;51.444;7.460;2023-03-19T04:50:27;5.05;;;2.15;;
59054;SDS011;44845;51.444;7.460;2023-03-19T04:52:54;4.53;;;1.60;;
59054;SDS011;44845;51.444;7.460;2023-03-19T04:55:19;3.22;;;1.63;;
59054;SDS011;44845;51.444;7.460;2023-03-19T04:57:44;2.78;;;1.35;;
59054;SDS011;44845;51.444;7.460;2023-03-19T05:00:10;4.18;;;1.50;;
59054;SDS011;44845;51.444;7.460;2023-03-19T05:02:36;5.50;;;1.30;;
59054;SDS011;44845;51.444;7.460;2023-03-19T05:05:02;4.80;;;1.70;;
59054;SDS011;44845;51.444;7.460;2023-03-19T05:07:27;4.82;;;1.30;;
59054;SDS011;44845;51.444;7.460;2023-03-19T05:09:53;4.28;;;1.77;;
59054;SDS011;44845;51.444;7.460;2023-03-19T05:12:18;4.03;;;1.20;;
59054;SDS011;44845;51.444;7.460;2023-03-19T05:14:43;1.45;;;1.25;;
59054;SDS011;44845;51.444;7.460;2023-03-19T05:17:09;8.48;;;1.33;;
59054;SDS011;44845;51.444;7.460;2023-03-19T05:19:35;3.92;;;1.55;;
59054;SDS011;44845;51.444;7.460;2023-03-19T05:22:02;3.58;;;1.77;;
59054;SDS011;44845;51.444;7.460;2023-03-19T05:24:28;6.32;;;1.30;;
59054;SDS011;44845;51.444;7.460;2023-03-19T05:26:53;5.35;;;1.88;;
59054;SDS011;44845;51.444;7.460;2023-03-19T05:29:18;5.32;;;1.23;;
59054;SDS011;44845;51.444;7.460;2023-03-19T05:31:44;2.05;;;1.40;;
59054;SDS011;44845;51.444;7.460;2023-03-19T05:34:09;2.67;;;1.30;;
59054;SDS011;44845;51.444;7.460;2023-03-19T05:36:34;2.45;;;1.30;;
59054;SDS011;44845;51.444;7.460;2023-03-19T05:39:00;3.08;;;1.20;;
59054;SDS011;44845;51.444;7.460;2023-03-19T05:41:26;3.38;;;1.15;;
59054;SDS011;44845;51.444;7.460;2023-03-19T05:43:51;5.25;;;1.50;;
59054;SDS011;44845;51.444;7.460;2023-03-19T05:46:17;1.80;;;1.10;;
59054;SDS011;44845;51.444;7.460;2023-03-19T05:48:42;2.63;;;1.40;;
59054;SDS011;44845;51.444;7.460;2023-03-19T05:51:07;2.70;;;1.10;;
59054;SDS011;44845;51.444;7.460;2023-03-19T05:53:33;2.83;;;1.27;;
59054;SDS011;44845;51.444;7.460;2023-03-19T05:55:59;3.63;;;1.35;;
59054;SDS011;44845;51.444;7.460;2023-03-19T05:58:24;2.50;;;1.23;;
59054;SDS011;44845;51.444;7.460;2023-03-19T06:00:50;1.85;;;1.25;;
59054;SDS011;44845;51.444;7.460;2023-03-19T06:03:15;3.17;;;1.48;;
59054;SDS011;44845;51.444;7.460;2023-03-19T06:05:41;2.35;;;1.33;;
59054;SDS011;44845;51.444;7.460;2023-03-19T06:08:06;3.17;;;1.55;;
59054;SDS011;44845;51.444;7.460;2023-03-19T06:10:35;5.85;;;1.80;;
59054;SDS011;44845;51.444;7.460;2023-03-19T06:13:01;2.95;;;1.60;;
59054;SDS011;44845;51.444;7.460;2023-03-19T06:15:26;3.40;;;1.50;;
59054;SDS011;44845;51.444;7.460;2023-03-19T06:17:51;2.92;;;1.67;;
59054;SDS011;44845;51.444;7.460;2023-03-19T06:20:17;5.38;;;1.80;;
59054;SDS011;44845;51.444;7.460;2023-03-19T06:22:42;3.40;;;1.75;;
59054;SDS011;44845;51.444;7.460;2023-03-19T06:25:08;5.18;;;1.80;;
59054;SDS011;44845;51.444;7.460;2023-03-19T06:27:33;4.40;;;1.67;;
59054;SDS011;44845;51.444;7.460;2023-03-19T06:29:59;2.72;;;1.63;;
59054;SDS011;44845;51.444;7.460;2023-03-19T06:32:24;2.28;;;1.58;;
59054;SDS011;44845;51.444;7.460;2023-03-19T06:34:49;3.17;;;1.30;;
59054;SDS011;44845;51.444;7.460;2023-03-19T06:37:15;2.55;;;1.27;;
59054;SDS011;44845;51.444;7.460;2023-03-19T06:39:41;2.47;;;1.20;;
59054;SDS011;44845;51.444;7.460;2023-03-19T06:42:06;3.10;;;1.75;;
59054;SDS011;44845;51.444;7.460;2023-03-19T06:44:32;3.50;;;1.25;;
59054;SDS011;44845;51.444;7.460;2023-03-19T06:46:57;3.72;;;1.05;;
59054;SDS011;44845;51.444;7.460;2023-03-19T06:49:22;3.65;;;1.17;;
59054;SDS011;44845;51.444;7.460;2023-03-19T06:51:48;3.42;;;1.27;;
59054;SDS011;44845;51.444;7.460;2023-03-19T06:54:13;4.38;;;1.38;;
59054;SDS011;44845;51.444;7.460;2023-03-19T06:56:39;2.50;;;1.15;;
59054;SDS011;44845;51.444;7.460;2023-03-19T06:59:04;5.70;;;1.35;;
59054;SDS011;44845;51.444;7.460;2023-03-19T07:01:30;4.68;;;1.23;;
59054;SDS011;44845;51.444;7.460;2023-03-19T07:03:55;3.25;;;1.05;;
59054;SDS011;44845;51.444;7.460;2023-03-19T07:06:21;2.80;;;1.35;;
59054;SDS011;44845;51.444;7.460;2023-03-19T07:08:47;4.80;;;1.25;;
59054;SDS011;44845;51.444;7.460;2023-03-19T07:11:12;2.25;;;1.10;;
59054;SDS011;44845;51.444;7.460;2023-03-19T07:13:39;2.72;;;1.40;;
59054;SDS011;44845;51.444;7.460;2023-03-19T07:16:05;3.22;;;1.17;;
59054;SDS011;44845;51.444;7.460;2023-03-19T07:18:31;1.20;;;0.95;;
59054;SDS011;44845;51.444;7.460;2023-03-19T07:20:56;4.75;;;1.10;;
59054;SDS011;44845;51.444;7.460;2023-03-19T07:23:21;4.28;;;1.10;;
59054;SDS011;44845;51.444;7.460;2023-03-19T07:25:47;4.13;;;1.48;;
59054;SDS011;44845;51.444;7.460;2023-03-19T07:28:12;2.75;;;1.50;;
59054;SDS011;44845;51.444;7.460;2023-03-19T07:30:38;2.47;;;1.50;;
59054;SDS011;44845;51.444;7.460;2023-03-19T07:33:04;2.72;;;1.40;;
59054;SDS011;44845;51.444;7.460;2023-03-19T07:35:31;7.75;;;1.70;;
59054;SDS011;44845;51.444;7.460;2023-03-19T07:37:57;4.93;;;1.50;;
59054;SDS011;44845;51.444;7.460;2023-03-19T07:40:23;2.50;;;1.40;;
59054;SDS011;44845;51.444;7.460;2023-03-19T07:42:49;3.03;;;1.50;;
59054;SDS011;44845;51.444;7.460;2023-03-19T07:45:15;3.08;;;1.50;;
59054;SDS011;44845;51.444;7.460;2023-03-19T07:47:40;2.95;;;1.60;;
59054;SDS011;44845;51.444;7.460;2023-03-19T07:50:06;2.45;;;1.20;;
59054;SDS011;44845;51.444;7.460;2023-03-19T07:52:32;2.65;;;1.15;;
59054;SDS011;44845;51.444;7.460;2023-03-19T07:54:57;4.47;;;1.10;;
59054;SDS011;44845;51.444;7.460;2023-03-19T07:57:23;2.92;;;1.30;;
59054;SDS011;44845;51.444;7.460;2023-03-19T07:59:49;4.78;;;1.58;;
59054;SDS011;44845;51.444;7.460;2023-03-19T08:02:15;3.83;;;1.60;;
59054;SDS011;44845;51.444;7.460;2023-03-19T08:04:42;2.70;;;1.40;;
59054;SDS011;44845;51.444;7.460;2023-03-19T08:07:07;3.88;;;1.42;;
59054;SDS011;44845;51.444;7.460;2023-03-19T08:09:35;5.72;;;1.45;;
59054;SDS011;44845;51.444;7.460;2023-03-19T08:12:01;4.70;;;1.67;;
59054;SDS011;44845;51.444;7.460;2023-03-19T08:14:26;2.85;;;1.70;;
59054;SDS011;44845;51.444;7.460;2023-03-19T08:16:52;5.10;;;2.40;;
59054;SDS011;44845;51.444;7.460;2023-03-19T08:19:17;2.95;;;1.80;;
59054;SDS011;44845;51.444;7.460;2023-03-19T08:21:42;3.10;;;1.73;;
59054;SDS011;44845;51.444;7.460;2023-03-19T08:24:08;4.60;;;1.92;;
59054;SDS011;44845;51.444;7.460;2023-03-19T08:26:33;3.85;;;1.70;;
59054;SDS011;44845;51.444;7.460;2023-03-19T08:28:59;2.42;;;1.52;;
59054;SDS011;44845;51.444;7.460;2023-03-19T08:31:24;3.88;;;2.25;;
59054;SDS011;44845;51.444;7.460;2023-03-19T08:33:50;3.60;;;1.80;;
59054;SDS011;44845;51.444;7.460;2023-03-19T08:36:15;4.60;;;2.10;;
59054;SDS011;44845;51.444;7.460;2023-03-19T08:38:41;3.17;;;2.00;;
59054;SDS011;44845;51.444;7.460;2023-03-19T08:41:07;3.45;;;2.38;;
59054;SDS011;44845;51.444;7.460;2023-03-19T08:43:33;3.67;;;2.80;;
59054;SDS011;44845;51.444;7.460;2023-03-19T08:46:00;3.50;;;2.78;;
59054;SDS011;44845;51.444;7.460;2023-03-19T08:48:26;3.47;;;2.58;;
59054;SDS011;44845;51.444;7.460;2023-03-19T08:50:57;3.10;;;2.80;;
59054;SDS011;44845;51.444;7.460;2023-03-19T08:53:24;4.50;;;2.90;;
59054;SDS011;44845;51.444;7.460;2023-03-19T08:55:54;3.88;;;2.72;;
59054;SDS011;44845;51.444;7.460;2023-03-19T08:58:21;3.08;;;2.60;;
59054;SDS011;44845;51.444;7.460;2023-03-19T09:00:47;3.08;;;2.50;;
59054;SDS011;44845;51.444;7.460;2023-03-19T09:03:13;3.35;;;2.40;;
59054;SDS011;44845;51.444;7.460;2023-03-19T09:05:39;2.55;;;2.30;;
59054;SDS011;44845;51.444;7.460;2023-03-19T09:08:05;2.50;;;2.20;;
59054;SDS011;44845;51.444;7.460;2023-03-19T09:10:31;3.40;;;2.10;;
59054;SDS011;44845;51.444;7.460;2023-03-19T09:12:56;5.05;;;2.30;;
59054;SDS011;44845;51.444;7.460;2023-03-19T09:15:22;3.42;;;2.15;;
59054;SDS011;44845;51.444;7.460;2023-03-19T09:17:48;3.53;;;1.92;;
59054;SDS011;44845;51.444;7.460;2023-03-19T09:20:13;2.60;;;2.13;;
59054;SDS011;44845;51.444;7.460;2023-03-19T09:22:38;4.65;;;1.80;;
59054;SDS011;44845;51.444;7.460;2023-03-19T09:25:04;4.20;;;2.17;;
59054;SDS011;44845;51.444;7.460;2023-03-19T09:27:30;4.22;;;2.00;;
59054;SDS011;44845;51.444;7.460;2023-03-19T09:29:55;2.90;;;2.00;;
59054;SDS011;44845;51.444;7.460;2023-03-19T09:32:21;1.85;;;1.40;;
59054;SDS011;44845;51.444;7.460;2023-03-19T09:34:46;2.45;;;1.85;;
59054;SDS011;44845;51.444;7.460;2023-03-19T09:37:11;3.83;;;2.00;;
59054;SDS011;44845;51.444;7.460;2023-03-19T09:39:37;3.72;;;1.90;;
59054;SDS011;44845;51.444;7.460;2023-03-19T09:42:18;3.55;;;1.90;;
59054;SDS011;44845;51.444;7.460;2023-03-19T09:44:51;3.20;;;1.92;;
59054;SDS011;44845;51.444;7.460;2023-03-19T09:50:10;4.00;;;1.83;;
59054;SDS011;44845;51.444;7.460;2023-03-19T09:58:14;4.07;;;1.70;;
59054;SDS011;44845;51.444;7.460;2023-03-19T10:00:43;5.07;;;2.13;;
59054;SDS011;44845;51.444;7.460;2023-03-19T10:08:36;5.45;;;1.70;;
59054;SDS011;44845;51.444;7.460;2023-03-19T10:16:38;2.67;;;1.83;;
59054;SDS011;44845;51.444;7.460;2023-03-19T10:19:05;2.75;;;1.70;;
59054;SDS011;44845;51.444;7.460;2023-03-19T10:21:39;2.42;;;2.00;;
59054;SDS011;44845;51.444;7.460;2023-03-19T10:26:39;1.98;;;1.83;;
59054;SDS011;44845;51.444;7.460;2023-03-19T10:29:17;6.25;;;2.53;;
59054;SDS011;44845;51.444;7.460;2023-03-19T10:34:42;6.50;;;3.20;;
59054;SDS011;44845;51.444;7.460;2023-03-19T10:39:46;3.65;;;3.35;;
59054;SDS011;44845;51.444;7.460;2023-03-19T10:48:00;3.67;;;3.05;;
59054;SDS011;44845;51.444;7.460;2023-03-19T10:50:34;3.63;;;3.33;;
59054;SDS011;44845;51.444;7.460;2023-03-19T10:53:06;4.82;;;3.55;;
59054;SDS011;44845;51.444;7.460;2023-03-19T10:55:54;5.57;;;4.18;;
59054;SDS011;44845;51.444;7.460;2023-03-19T10:58:22;6.70;;;4.30;;
59054;SDS011;44845;51.444;7.460;2023-03-19T11:01:06;6.82;;;3.75;;
59054;SDS011;44845;51.444;7.460;2023-03-19T11:03:48;4.82;;;4.32;;
59054;SDS011;44845;51.444;7.460;2023-03-19T11:08:42;6.20;;;3.78;;
59054;SDS011;44845;51.444;7.460;2023-03-19T11:14:15;3.80;;;3.50;;
59054;SDS011;44845;51.444;7.460;2023-03-19T11:16:46;4.88;;;3.58;;
59054;SDS011;44845;51.444;7.460;2023-03-19T11:19:20;4.07;;;3.67;;
59054;SDS011;44845;51.444;7.460;2023-03-19T11:24:41;4.45;;;3.38;;
59054;SDS011;44845;51.444;7.460;2023-03-19T11:27:12;4.88;;;3.28;;
59054;SDS011;44845;51.444;7.460;2023-03-19T11:29:42;5.43;;;4.00;;
59054;SDS011;44845;51.444;7.460;2023-03-19T11:37:29;4.20;;;3.83;;
59054;SDS011;44845;51.444;7.460;2023-03-19T11:48:37;3.00;;;2.50;;
59054;SDS011;44845;51.444;7.460;2023-03-19T12:18:42;4.10;;;1.58;;
59054;SDS011;44845;51.444;7.460;2023-03-19T12:21:16;1.20;;;1.20;;
59054;SDS011;44845;51.444;7.460;2023-03-19T12:26:34;2.25;;;1.70;;
59054;SDS011;44845;51.444;7.460;2023-03-19T12:34:30;1.50;;;1.40;;
59054;SDS011;44845;51.444;7.460;2023-03-19T12:42:58;2.38;;;2.17;;
59054;SDS011;44845;51.444;7.460;2023-03-19T12:45:36;2.47;;;2.28;;
59054;SDS011;44845;51.444;7.460;2023-03-19T12:48:07;1.30;;;1.20;;
59054;SDS011;44845;51.444;7.460;2023-03-19T12:50:36;1.63;;;0.80;;
59054;SDS011;44845;51.444;7.460;2023-03-19T12:53:06;2.08;;;0.70;;
59054;SDS011;44845;51.444;7.460;2023-03-19T12:55:42;3.25;;;0.80;;
59054;SDS011;44845;51.444;7.460;2023-03-19T12:58:15;1.00;;;0.80;;
59054;SDS011;44845;51.444;7.460;2023-03-19T13:00:49;1.25;;;0.70;;
59054;SDS011;44845;51.444;7.460;2023-03-19T13:03:30;0.95;;;0.65;;
59054;SDS011;44845;51.444;7.460;2023-03-19T13:12:06;1.27;;;1.17;;
59054;SDS011;44845;51.444;7.460;2023-03-19T13:20:23;2.55;;;1.25;;
59054;SDS011;44845;51.444;7.460;2023-03-19T13:22:55;3.25;;;1.77;;
59054;SDS011;44845;51.444;7.460;2023-03-19T13:25:30;1.88;;;1.77;;
59054;SDS011;44845;51.444;7.460;2023-03-19T13:28:05;1.67;;;1.58;;
59054;SDS011;44845;51.444;7.460;2023-03-19T13:30:34;2.33;;;1.70;;
59054;SDS011;44845;51.444;7.460;2023-03-19T13:33:10;1.88;;;1.77;;
59054;SDS011;44845;51.444;7.460;2023-03-19T13:35:42;2.53;;;1.95;;
59054;SDS011;44845;51.444;7.460;2023-03-19T13:38:19;2.28;;;1.95;;
59054;SDS011;44845;51.444;7.460;2023-03-19T13:40:57;2.10;;;1.90;;
59054;SDS011;44845;51.444;7.460;2023-03-19T13:45:52;2.75;;;2.03;;
59054;SDS011;44845;51.444;7.460;2023-03-19T13:50:59;4.53;;;3.20;;
59054;SDS011;44845;51.444;7.460;2023-03-19T13:56:14;4.30;;;3.90;;
59054;SDS011;44845;51.444;7.460;2023-03-19T13:59:09;3.80;;;3.50;;
59054;SDS011;44845;51.444;7.460;2023-03-19T14:01:48;6.88;;;4.40;;
59054;SDS011;44845;51.444;7.460;2023-03-19T14:07:25;5.68;;;4.43;;
59054;SDS011;44845;51.444;7.460;2023-03-19T14:09:48;7.15;;;4.60;;
59054;SDS011;44845;51.444;7.460;2023-03-19T14:12:34;5.35;;;4.65;;
59054;SDS011;44845;51.444;7.460;2023-03-19T14:15:03;5.95;;;4.97;;
59054;SDS011;44845;51.444;7.460;2023-03-19T14:17:43;5.15;;;4.65;;
59054;SDS011;44845;51.444;7.460;2023-03-19T14:25:18;5.40;;;4.75;;
59054;SDS011;44845;51.444;7.460;2023-03-19T14:27:48;5.18;;;4.68;;
59054;SDS011;44845;51.444;7.460;2023-03-19T14:32:48;5.20;;;4.47;;
59054;SDS011;44845;51.444;7.460;2023-03-19T14:35:16;6.43;;;4.75;;
59054;SDS011;44845;51.444;7.460;2023-03-19T14:37:47;5.30;;;4.40;;
59054;SDS011;44845;51.444;7.460;2023-03-19T14:40:15;6.63;;;5.50;;
59054;SDS011;44845;51.444;7.460;2023-03-19T14:42:57;10.57;;;5.32;;
59054;SDS011;44845;51.444;7.460;2023-03-19T14:48:07;8.63;;;5.75;;
59054;SDS011;44845;51.444;7.460;2023-03-19T14:50:49;10.07;;;5.38;;
59054;SDS011;44845;51.444;7.460;2023-03-19T14:53:18;8.05;;;6.05;;
59054;SDS011;44845;51.444;7.460;2023-03-19T14:55:50;6.32;;;5.40;;
59054;SDS011;44845;51.444;7.460;2023-03-19T14:58:20;5.95;;;4.43;;
59054;SDS011;44845;51.444;7.460;2023-03-19T15:00:47;6.35;;;4.30;;
59054;SDS011;44845;51.444;7.460;2023-03-19T15:03:19;5.00;;;4.40;;
59054;SDS011;44845;51.444;7.460;2023-03-19T15:05:55;5.30;;;4.03;;
59054;SDS011;44845;51.444;7.460;2023-03-19T15:08:23;4.88;;;4.03;;
59054;SDS011;44845;51.444;7.460;2023-03-19T15:13:50;5.00;;;3.47;;
59054;SDS011;44845;51.444;7.460;2023-03-19T15:21:47;3.80;;;3.50;;
59054;SDS011;44845;51.444;7.460;2023-03-19T15:24:14;7.40;;;4.47;;
59054;SDS011;44845;51.444;7.460;2023-03-19T15:26:41;4.88;;;4.38;;
59054;SDS011;44845;51.444;7.460;2023-03-19T15:29:07;6.25;;;5.38;;
59054;SDS011;44845;51.444;7.460;2023-03-19T15:37:09;8.27;;;5.30;;
59054;SDS011;44845;51.444;7.460;2023-03-19T15:39:47;6.15;;;5.05;;
59054;SDS011;44845;51.444;7.460;2023-03-19T15:42:15;6.25;;;4.50;;
59054;SDS011;44845;51.444;7.460;2023-03-19T15:44:45;4.47;;;4.07;;
59054;SDS011;44845;51.444;7.460;2023-03-19T15:47:16;6.43;;;4.25;;
59054;SDS011;44845;51.444;7.460;2023-03-19T15:49:51;7.93;;;3.83;;
59054;SDS011;44845;51.444;7.460;2023-03-19T15:52:23;5.10;;;3.40;;
59054;SDS011;44845;51.444;7.460;2023-03-19T15:54:50;4.88;;;3.63;;
59054;SDS011;44845;51.444;7.460;2023-03-19T15:57:18;3.63;;;3.30;;
59054;SDS011;44845;51.444;7.460;2023-03-19T15:59:44;3.45;;;3.15;;
59054;SDS011;44845;51.444;7.460;2023-03-19T16:02:15;3.83;;;3.42;;
59054;SDS011;44845;51.444;7.460;2023-03-19T16:04:49;3.67;;;3.38;;
59054;SDS011;44845;51.444;7.460;2023-03-19T16:07:20;3.47;;;3.13;;
59054;SDS011;44845;51.444;7.460;2023-03-19T16:12:53;3.50;;;3.20;;
59054;SDS011;44845;51.444;7.460;2023-03-19T16:15:20;5.05;;;3.50;;
59054;SDS011;44845;51.444;7.460;2023-03-19T16:17:46;3.17;;;2.88;;
59054;SDS011;44845;51.444;7.460;2023-03-19T16:20:13;6.18;;;3.13;;
59054;SDS011;44845;51.444;7.460;2023-03-19T16:22:39;4.63;;;2.60;;
59054;SDS011;44845;51.444;7.460;2023-03-19T16:25:11;2.58;;;2.38;;
59054;SDS011;44845;51.444;7.460;2023-03-19T16:27:42;3.00;;;2.70;;
59054;SDS011;44845;51.444;7.460;2023-03-19T16:32:43;4.03;;;2.85;;
59054;SDS011;44845;51.444;7.460;2023-03-19T16:42:42;2.28;;;2.10;;
59054;SDS011;44845;51.444;7.460;2023-03-19T16:45:17;2.37;;;2.17;;
59054;SDS011;44845;51.444;7.460;2023-03-19T16:47:51;2.65;;;2.20;;
59054;SDS011;44845;51.444;7.460;2023-03-19T16:50:21;2.78;;;2.05;;
59054;SDS011;44845;51.444;7.460;2023-03-19T16:52:53;4.70;;;2.65;;
59054;SDS011;44845;51.444;7.460;2023-03-19T16:55:23;3.55;;;2.33;;
59054;SDS011;44845;51.444;7.460;2023-03-19T16:57:55;3.90;;;1.90;;
59054;SDS011;44845;51.444;7.460;2023-03-19T17:00:22;2.83;;;2.30;;
59054;SDS011;44845;51.444;7.460;2023-03-19T17:02:49;3.85;;;2.60;;
59054;SDS011;44845;51.444;7.460;2023-03-19T17:05:16;2.55;;;2.20;;
59054;SDS011;44845;51.444;7.460;2023-03-19T17:07:41;2.53;;;2.33;;
59054;SDS011;44845;51.444;7.460;2023-03-19T17:10:17;2.67;;;2.38;;
59054;SDS011;44845;51.444;7.460;2023-03-19T17:12:45;3.55;;;2.00;;
59054;SDS011;44845;51.444;7.460;2023-03-19T17:15:21;4.45;;;2.28;;
59054;SDS011;44845;51.444;7.460;2023-03-19T17:17:50;4.97;;;2.45;;
59054;SDS011;44845;51.444;7.460;2023-03-19T17:20:21;4.13;;;2.45;;
59054;SDS011;44845;51.444;7.460;2023-03-19T17:22:57;4.05;;;2.40;;
59054;SDS011;44845;51.444;7.460;2023-03-19T17:25:22;4.57;;;2.97;;
59054;SDS011;44845;51.444;7.460;2023-03-19T17:27:48;3.40;;;2.95;;
59054;SDS011;44845;51.444;7.460;2023-03-19T17:30:13;2.65;;;2.33;;
59054;SDS011;44845;51.444;7.460;2023-03-19T17:32:39;3.70;;;2.40;;
59054;SDS011;44845;51.444;7.460;2023-03-19T17:35:17;3.13;;;2.60;;